• Join FlightAware (Why Join?)
  • Login
  • US Flag 
Rudolph Flight #1: Arrived! 
09:49PM EST


 

Airport Tracker/Info


-or-


 

Live Flight TrackerFlight Track Log ✈ EJA820 ✈ 24-Apr-2013 ✈ KBED - KCLE

Flight Track Log - Related Links

Times and Time Zones

All times are in EDT time to prevent confusion due to time zone crossing. See the EJA820 flight status page for this flight to view local times or setup timezone preferences in your user account.

Time Position Orientation Groundspeed Altitude Reporting Facility
EDT Latitude Longitude Course Direction KTS MPH feet Rate Location/Type
07:14AM 42.4667 -71.3167 270° West 190 219 1,300  Level KA90
07:14AM 42.4667 -71.3333 270° West 193 222 1,600 480 Climbing KA90
07:15AM 42.4833 -71.4000 289° West 186 214 2,000 600 Climbing KA90
07:16AM 42.5333 -71.4000 360° North 188 216 2,800 1,980 Climbing KA90
07:19AM 42.6514 -71.3222 26° Northeast 239 275 8,300 2,940 Climbing Boston Center
07:20AM 42.7156 -71.2844 23° Northeast 240 276 12,100 2,880 Climbing Boston Center
07:21AM 42.7742 -71.3058 345° North 232 267 14,100 1,980 Climbing Boston Center
07:22AM 42.7958 -71.4158 285° West 232 267 16,100 1,620 Climbing Boston Center
07:23AM 42.8031 -71.5233 275° West 287 330 17,400 1,260 Climbing Boston Center
07:24AM 42.8186 -71.6617 279° West 332 382 18,700 1,380 Climbing Boston Center
07:25AM 42.8300 -71.7806 277° West 343 395 20,200 1,800 Climbing Boston Center
07:26AM 42.8431 -71.9078 278° West 348 400 22,300 1,800 Climbing Boston Center
07:27AM 42.8539 -72.0322 277° West 348 400 23,900 1,620 Climbing Boston Center
07:28AM 42.8647 -72.1625 277° West 353 406 25,600 1,620 Climbing Boston Center
07:29AM 42.8817 -72.2900 280° West 353 406 27,200 1,560 Climbing Boston Center
07:30AM 42.8964 -72.4203 279° West 353 406 28,800 1,560 Climbing Boston Center
07:31AM 42.9067 -72.5506 276° West 353 406 30,400 1,620 Climbing Boston Center
07:32AM 42.9108 -72.6811 273° West 353 406 32,100 1,620 Climbing Boston Center
07:33AM 42.9208 -72.8144 276° West 348 400 33,700 900 Climbing Boston Center
07:34AM 42.9347 -72.9619 277° West 353 406 34,000 120 Climbing Boston Center
07:35AM 42.9486 -73.1122 277° West 377 434 34,000  Level Boston Center
07:36AM 42.9622 -73.2656 277° West 392 451 34,000  Level Boston Center
07:37AM 42.9694 -73.4019 274° West 403 464 34,000  Level Boston Center
07:38AM 42.9828 -73.5525 277° West 403 464 34,000  Level Boston Center
07:39AM 42.9917 -73.7003 275° West 403 464 34,000 480 Level Boston Center
07:40AM 43.0044 -73.8483 277° West 403 464 35,000 900 Climbing Boston Center
07:41AM 43.0150 -73.9878 276° West 393 452 35,900 480 Climbing Boston Center
07:42AM 43.0256 -74.1328 276° West 388 447 36,000  Climbing Boston Center
07:43AM 43.0378 -74.2781 277° West 388 447 36,000  Level Boston Center
07:44AM 43.0461 -74.4147 275° West 383 441 36,000  Level Boston Center
07:45AM 43.0578 -74.5742 276° West 371 427 36,000  Level Boston Center
07:46AM 43.0675 -74.7108 276° West 365 420 36,000  Level Boston Center
07:47AM 43.0772 -74.8478 276° West 365 420 36,000  Level Boston Center
07:48AM 43.0847 -74.9844 274° West 370 426 36,000  Level Boston Center
07:49AM 43.0958 -75.1328 276° West 370 426 36,000  Level Boston Center
07:50AM 43.0969 -75.2694 271° West 370 426 36,000  Level Boston Center
07:51AM 43.0808 -75.4081 261° West 365 420 36,000  Level Boston Center
07:52AM 43.0619 -75.5719 261° West 365 420 36,000  Level Boston Center
07:54AM 43.0353 -75.8164 262° West 363 418 36,000  Level Cleveland Center
07:55AM 43.0197 -75.9511 261° West 358 412 36,000  Level Cleveland Center
07:56AM 43.0061 -76.0828 262° West 358 412 36,000  Level Cleveland Center
07:57AM 42.9925 -76.2114 262° West 358 412 36,000  Level Cleveland Center
07:58AM 42.9764 -76.3375 260° West 352 405 36,000  Level Cleveland Center
07:59AM 42.9619 -76.4633 261° West 352 405 36,000  Level Cleveland Center
08:00AM 42.9478 -76.5919 261° West 347 399 36,000  Level Cleveland Center
08:01AM 42.9344 -76.6922 260° West 347 399 36,000  Level Cleveland Center
08:02AM 42.9181 -76.8264 261° West 342 394 36,000  Level Cleveland Center
08:03AM 42.9014 -76.9550 260° West 337 388 36,000  Level Cleveland Center
08:04AM 42.8803 -77.0781 257° West 337 388 36,000  Level Cleveland Center
08:05AM 42.8292 -77.1886 238° Southwest 342 394 36,000  Level Cleveland Center
08:06AM 42.7825 -77.3042 241° Southwest 347 399 36,000  Level Cleveland Center
08:07AM 42.7336 -77.4172 240° Southwest 347 399 36,000  Level Cleveland Center
08:08AM 42.6828 -77.5411 241° Southwest 347 399 36,000 -420 Level Cleveland Center
08:09AM 42.6336 -77.6536 239° Southwest 353 406 35,200 -900 Descending Cleveland Center
08:10AM 42.5864 -77.7714 241° Southwest 353 406 34,300 -600 Descending Cleveland Center
08:11AM 42.5369 -77.8753 237° Southwest 348 400 34,000 -180 Descending Cleveland Center
08:12AM 42.4894 -77.9842 239° Southwest 343 395 34,000  Level Cleveland Center
08:13AM 42.4436 -78.0903 240° Southwest 343 395 34,000  Level Cleveland Center
08:14AM 42.3939 -78.2047 240° Southwest 343 395 34,000  Level Cleveland Center
08:15AM 42.3442 -78.3189 240° Southwest 348 400 34,000  Level Cleveland Center
08:16AM 42.2942 -78.4331 239° Southwest 353 406 34,000  Level Cleveland Center
08:17AM 42.2422 -78.5497 239° Southwest 359 413 34,000  Level Cleveland Center
08:18AM 42.1878 -78.6664 238° Southwest 364 419 34,000  Level Cleveland Center
08:19AM 42.1419 -78.7911 244° Southwest 370 426 34,000  Level Cleveland Center
08:20AM 42.1125 -78.9178 253° West 370 426 34,000  Level Cleveland Center
08:22AM 42.0453 -79.1794 251° West 370 426 34,000 -240 Level Cleveland Center
08:23AM 42.0133 -79.3089 252° West 370 426 33,300 -1,140 Descending Cleveland Center
08:24AM 41.9833 -79.4239 251° West 358 412 31,800 -1,620 Descending Cleveland Center
08:25AM 41.9531 -79.5389 251° West 336 387 30,100 -1,620 Descending Cleveland Center
08:26AM 41.9208 -79.6622 251° West 336 387 28,600 -1,500 Descending Cleveland Center
08:27AM 41.8864 -79.7883 250° West 353 406 27,100 -1,560 Descending Cleveland Center
08:28AM 41.8539 -79.9114 251° West 353 406 25,500 -1,620 Descending Cleveland Center
08:29AM 41.8211 -80.0397 251° West 358 412 23,900 -1,620 Descending Cleveland Center
08:30AM 41.7883 -80.1628 250° West 364 419 22,300 -1,800 Descending Cleveland Center
08:31AM 41.7575 -80.2825 251° West 357 411 20,300 -2,160 Descending Cleveland Center
08:32AM 41.7264 -80.3967 250° West 341 392 18,000 -2,160 Descending Cleveland Center
08:33AM 41.6972 -80.5025 250° West 329 379 16,000 -2,100 Descending Cleveland Center
08:34AM 41.6703 -80.5997 250° West 303 349 13,800 -2,160 Descending Cleveland Center
08:35AM 41.6453 -80.6942 251° West 280 322 11,700 -1,860 Descending Cleveland Center
08:36AM 41.6200 -80.7831 249° West 280 322 10,100 -900 Descending Cleveland Center
08:37AM 41.5947 -80.8831 251° West 286 329 10,000 -120 Descending Cleveland Center
08:37AM 41.5800 -80.9275 246° West 283 326 10,000  Level Cleveland Center
08:38AM 41.5675 -80.9772 251° West 286 329 10,000  Level Cleveland Center
08:38AM 41.5506 -81.0297 247° West 280 322 10,000  Level Cleveland Center
08:39AM 41.5419 -81.0742 256° West 286 329 10,000 -540 Level Cleveland Center
08:39AM 41.5333 -81.1433 261° West 273 314 9,400 -1,020 Descending Cleveland Center
08:40AM 41.5333 -81.1739 270° West 280 322 9,000 -1,260 Descending Cleveland Center
08:40AM 41.5308 -81.2406 267° West 228 262 8,000 -1,440 Descending Cleveland Center
08:41AM 41.5306 -81.2572 269° West 252 290 7,600 -1,020 Descending Cleveland Center
08:41AM 41.5303 -81.3264 270° West 223 257 7,000 -600 Descending Cleveland Center
08:42AM 41.5300 -81.3403 268° West 232 267 7,000 -120 Level Cleveland Center
08:42AM 41.5275 -81.4097 267° West 226 260 6,900 -300 Descending Cleveland Center
08:43AM 41.5275 -81.4264 270° West 232 267 6,700 -1,020 Descending Cleveland Center
08:43AM 41.5269 -81.4789 269° West 229 264 6,100 -1,020 Descending Cleveland Center
08:44AM 41.5247 -81.5178 266° West 232 267 5,700 -1,020 Descending Cleveland Center
08:44AM 41.5242 -81.5761 269° West 227 261 4,900 -1,320 Descending Cleveland Center
08:45AM 41.5219 -81.6008 263° West 232 267 4,400 -1,020 Descending Cleveland Center
08:45AM 41.5194 -81.6481 266° West 201 231 4,000 -600 Descending Cleveland Center
08:46AM 41.5169 -81.6758 263° West 225 259 3,800 -900 Descending Cleveland Center
08:46AM 41.5019 -81.7114 241° Southwest 188 216 3,100 -840 Descending Cleveland Center
08:47AM 41.4914 -81.7308 234° Southwest 190 219 3,000 -420 Descending Cleveland Center
08:47AM 41.4767 -81.7528 228° Southwest 132 152 2,700 -540 Descending Cleveland Center
08:48AM 41.4575 -81.7828 230° Southwest 101 116 2,100 -600 Descending Cleveland Center
08:49AM 41.4364 -81.8100 224° Southwest 106 122 1,600 -540 Descending Cleveland Center
08:51AM 41.4000 -81.8500 252° West  Level FlightAware Approximate
08:58AM 41.4094 -81.8547 252° West  Level Estimated
08:59AM 41.4094 -81.8547 252° West  Level Estimated